Terminal Aerodrome Forecast
Issued by NWS

Home | Current Version | Previous Version | Text Only | Print | Product List | Glossary On
Versions: 1 2 3 4 5 6 7 8 9 10 11 12 13 14 15 16 17 18 19 20 21 22 23 24 25 26 27 28
000
FTUS41 KOKX 021741
TAFTEB
TAF
KTEB 021741Z 0218/0318 02010KT 6SM -RA BKN007 OVC012
      TEMPO 0219/0223 3SM RA SCT007
     FM030300 04007KT 6SM BR SCT007 OVC012
      TEMPO 0303/0306 -RA BKN007
     FM030600 04007KT P6SM FEW007 OVC015
     FM031200 04006KT P6SM SCT015 OVC030
     FM031500 09008KT P6SM SCT030 OVC050=

USA.gov is the U.S. government's official web portal to all federal, state and local government web resources and services.